Terminal Aerodrome Forecast
Issued by NWS

Home | Current Version | Previous Version | Graphics & Text | Print | Product List | Glossary On
Versions: 1 2 3 4 5 6 7 8 9 10 11 12 13 14 15 16
000
FTUS42 KMHX 282345
TAFPGV
TAF
KPGV 282345Z 2900/2924 14005KT P6SM VCSH SCT250
     FM290700 VRB03KT 5SM BR SCT070
     FM290830 VRB03KT 2SM BR BKN007
     FM291300 11005KT P6SM BKN020
     FM291400 13006KT P6SM VCSH BKN045
      AMD LTD TO CLD VIS AND WIND=

USA.gov is the U.S. government's official web portal to all federal, state and local government web resources and services.